createdAt,value
2023-01-25T00:02:04.246Z,22.40
2023-01-25T00:05:47.922Z,22.90
2023-01-25T00:09:31.399Z,25.30
2023-01-25T00:13:14.984Z,21.90
2023-01-25T00:16:49.826Z,23.20
2023-01-25T00:20:33.216Z,23.90
2023-01-25T00:24:16.526Z,23.30
2023-01-25T00:27:52.800Z,23.20
2023-01-25T00:31:38.966Z,22.80
2023-01-25T00:35:25.085Z,24.30
2023-01-25T00:39:01.672Z,24.30
2023-01-25T00:42:45.124Z,29.20
2023-01-25T00:46:21.547Z,22.50
2023-01-25T00:50:04.835Z,23.90
2023-01-25T00:53:48.549Z,21.60
2023-01-25T00:57:32.186Z,24.50
2023-01-25T01:01:08.517Z,22.30
2023-01-25T01:04:52.119Z,22.50
2023-01-25T01:08:38.041Z,21.70
2023-01-25T01:12:21.658Z,20.10
2023-01-25T01:16:05.494Z,20.80
2023-01-25T01:19:42.850Z,19.90
2023-01-25T01:23:26.552Z,18.30
2023-01-25T01:27:09.991Z,18.00
2023-01-25T01:30:53.882Z,15.90
2023-01-25T01:34:37.380Z,16.70
2023-01-25T01:38:21.100Z,15.10
2023-01-25T01:42:04.734Z,13.90
2023-01-25T01:45:46.381Z,13.90
2023-01-25T01:49:35.954Z,12.00
2023-01-25T01:53:16.776Z,13.70
2023-01-25T01:57:00.275Z,12.70
2023-01-25T02:00:43.810Z,12.40
2023-01-25T02:04:19.877Z,11.70
2023-01-25T02:08:12.162Z,13.30
2023-01-25T02:11:49.723Z,15.30
2023-01-25T02:15:33.043Z,17.30
2023-01-25T02:19:17.393Z,15.20
2023-01-25T02:23:00.854Z,14.70
2023-01-25T02:26:37.481Z,14.30
2023-01-25T02:30:21.028Z,15.00
2023-01-25T02:34:04.630Z,15.00
2023-01-25T02:37:48.069Z,15.30
2023-01-25T02:41:37.361Z,14.20
2023-01-25T02:45:23.647Z,14.30
2023-01-25T02:49:07.737Z,15.10
2023-01-25T02:52:40.360Z,42.10
2023-01-25T02:56:23.824Z,35.40
2023-01-25T03:00:07.219Z,29.60
2023-01-25T03:03:50.804Z,17.20
2023-01-25T03:07:34.360Z,31.60
2023-01-25T03:11:17.940Z,42.40
2023-01-25T03:15:01.542Z,26.10
2023-01-25T03:18:45.028Z,23.00
2023-01-25T03:22:28.900Z,15.80
2023-01-25T03:26:12.287Z,15.70
2023-01-25T03:29:48.660Z,16.00
2023-01-25T03:33:32.146Z,14.80
2023-01-25T03:37:14.305Z,12.60
2023-01-25T03:40:57.781Z,10.50
2023-01-25T03:44:41.381Z,9.60
2023-01-25T03:48:17.964Z,9.10
2023-01-25T03:51:49.994Z,8.90
2023-01-25T03:55:26.581Z,7.70
2023-01-25T03:59:09.861Z,9.00
2023-01-25T04:02:53.305Z,7.10
2023-01-25T04:06:29.909Z,6.00
2023-01-25T04:10:13.333Z,6.50
2023-01-25T04:13:41.796Z,6.20
2023-01-25T04:17:25.257Z,6.60
2023-01-25T04:21:09.135Z,6.70
2023-01-25T04:24:52.508Z,6.20
2023-01-25T04:28:51.351Z,7.80
2023-01-25T04:32:34.901Z,27.50
2023-01-25T04:36:48.868Z,10.20
2023-01-25T04:40:22.825Z,19.20
2023-01-25T04:44:07.909Z,22.70
2023-01-25T04:47:51.559Z,14.30
2023-01-25T04:51:29.940Z,70.60
2023-01-25T04:55:13.648Z,24.30
2023-01-25T04:58:58.166Z,26.30
2023-01-25T05:02:24.493Z,10.20
2023-01-25T05:13:33.803Z,9.30
2023-01-25T05:17:24.451Z,8.70
2023-01-25T05:21:08.045Z,13.90
2023-01-25T05:24:53.034Z,11.20
2023-01-25T05:28:38.176Z,8.80
2023-01-25T05:32:17.581Z,8.70
2023-01-25T05:36:02.656Z,8.90
2023-01-25T05:39:47.454Z,8.40
2023-01-25T05:43:35.399Z,8.80
2023-01-25T05:47:20.471Z,9.10
2023-01-25T05:50:58.214Z,10.00
2023-01-25T05:54:43.107Z,8.90
2023-01-25T05:58:26.470Z,9.00
2023-01-25T06:02:11.625Z,9.70
2023-01-25T06:05:55.611Z,9.70
2023-01-25T06:09:40.517Z,11.00
2023-01-25T06:13:18.299Z,11.20
2023-01-25T06:17:03.024Z,11.90
2023-01-25T06:20:53.905Z,15.80
2023-01-25T06:24:38.742Z,16.00
2023-01-25T06:28:24.103Z,15.90
2023-01-25T06:32:09.424Z,14.90
2023-01-25T06:35:54.865Z,16.10
2023-01-25T06:39:39.906Z,17.90
2023-01-25T06:43:25.140Z,17.90
2023-01-25T06:47:10.244Z,20.50
2023-01-25T06:50:55.237Z,19.00
2023-01-25T06:54:40.151Z,19.80
2023-01-25T06:58:15.498Z,19.10
2023-01-25T07:02:03.518Z,20.10
2023-01-25T07:05:37.470Z,24.20
2023-01-25T07:09:22.807Z,25.00
2023-01-25T07:13:07.900Z,25.20
2023-01-25T07:16:52.907Z,26.20
2023-01-25T07:20:37.641Z,24.40
2023-01-25T07:24:25.769Z,27.70
2023-01-25T07:28:10.795Z,26.20
2023-01-25T07:32:04.978Z,24.50
2023-01-25T07:35:49.899Z,25.60
2023-01-25T07:39:34.955Z,29.60
2023-01-25T07:43:19.860Z,26.20
2023-01-25T07:47:04.601Z,21.50
2023-01-25T07:51:44.036Z,19.20
2023-01-25T07:59:00.405Z,20.30
2023-01-25T08:02:45.205Z,23.60
2023-01-25T08:06:29.796Z,23.00
2023-01-25T08:10:03.098Z,22.90
2023-01-25T08:13:48.395Z,20.60
2023-01-25T08:17:33.534Z,23.20
2023-01-25T08:21:18.683Z,23.90
2023-01-25T08:25:02.302Z,21.90
2023-01-25T08:28:46.813Z,22.70
2023-01-25T08:32:31.640Z,21.40
2023-01-25T08:36:16.464Z,20.80
2023-01-25T08:39:59.838Z,20.50
2023-01-25T08:43:44.773Z,21.50
2023-01-25T08:47:29.549Z,22.70
2023-01-25T08:51:06.966Z,22.40
2023-01-25T08:54:51.819Z,21.80
2023-01-25T08:58:36.804Z,20.70
2023-01-25T09:02:21.713Z,20.90
2023-01-25T09:05:59.245Z,21.50
2023-01-25T09:09:44.061Z,18.90
2023-01-25T09:13:28.935Z,20.30
2023-01-25T09:17:05.869Z,19.90
2023-01-25T09:20:50.967Z,20.40
2023-01-25T09:24:25.026Z,20.90
2023-01-25T09:28:02.206Z,19.20
2023-01-25T09:31:40.442Z,21.30
2023-01-25T09:35:23.855Z,21.90
2023-01-25T09:39:08.852Z,22.10
2023-01-25T09:43:11.544Z,22.00
2023-01-25T09:47:02.472Z,20.80
2023-01-25T09:51:14.332Z,20.00
2023-01-25T09:54:59.346Z,21.00
2023-01-25T09:58:42.960Z,20.40
2023-01-25T10:02:45.801Z,22.70
2023-01-25T10:06:25.684Z,19.50
2023-01-25T10:10:17.768Z,20.90
2023-01-25T10:14:02.680Z,21.70
2023-01-25T10:17:47.226Z,22.80
2023-01-25T10:21:31.917Z,21.60
2023-01-25T10:25:15.307Z,20.80
2023-01-25T10:29:01.769Z,22.20
2023-01-25T10:32:55.915Z,22.30
2023-01-25T10:36:41.217Z,21.30
2023-01-25T10:40:36.719Z,22.90
2023-01-25T10:44:21.563Z,23.30
2023-01-25T10:48:15.491Z,22.10
2023-01-25T10:52:09.270Z,23.20
2023-01-25T10:56:03.505Z,24.80
2023-01-25T10:59:56.967Z,21.40
2023-01-25T11:03:41.946Z,24.20
2023-01-25T11:07:29.888Z,26.90
2023-01-25T11:11:32.871Z,23.70
2023-01-25T11:18:46.506Z,26.10
2023-01-25T11:22:24.734Z,24.50
2023-01-25T11:26:27.769Z,25.00
2023-01-25T11:30:08.456Z,25.00
2023-01-25T11:33:35.058Z,27.30
2023-01-25T11:37:34.509Z,26.20
2023-01-25T11:41:31.194Z,25.70
2023-01-25T11:45:25.321Z,31.90
2023-01-25T11:49:31.411Z,29.50
2023-01-25T11:53:28.592Z,28.10
2023-01-25T11:57:23.235Z,27.40
2023-01-25T12:01:24.728Z,27.90
2023-01-25T12:05:30.881Z,29.00
2023-01-25T12:09:21.710Z,26.90
2023-01-25T12:13:06.523Z,30.50
2023-01-25T12:16:51.594Z,29.90
2023-01-25T12:20:54.515Z,30.40
2023-01-25T12:24:51.158Z,27.50
2023-01-25T12:28:38.730Z,28.40
2023-01-25T12:32:38.637Z,28.20
2023-01-25T12:36:13.754Z,26.80
2023-01-25T12:39:58.612Z,28.10
2023-01-25T12:43:46.028Z,28.20
2023-01-25T12:47:36.453Z,30.70
2023-01-25T12:51:21.370Z,25.80
2023-01-25T12:55:01.303Z,26.20
2023-01-25T12:58:49.076Z,28.20
2023-01-25T13:02:48.648Z,29.70
2023-01-25T13:06:34.570Z,29.10
2023-01-25T13:10:43.926Z,26.90
2023-01-25T13:14:31.358Z,26.70
2023-01-25T13:18:23.369Z,25.10
2023-01-25T13:22:17.114Z,25.00
2023-01-25T13:26:05.195Z,23.00
2023-01-25T13:34:24.504Z,22.50
2023-01-25T13:38:21.767Z,26.10
2023-01-25T13:42:03.880Z,40.00
2023-01-25T13:45:48.942Z,70.80
2023-01-25T13:49:33.937Z,31.60
2023-01-25T13:53:18.821Z,25.70
2023-01-25T13:57:07.725Z,25.70
2023-01-25T14:01:01.895Z,28.10
2023-01-25T14:04:48.187Z,27.80
2023-01-25T14:08:35.720Z,29.00
2023-01-25T14:12:20.570Z,29.00
2023-01-25T14:16:10.579Z,26.80
2023-01-25T14:20:07.197Z,32.40
2023-01-25T14:23:58.196Z,43.20
2023-01-25T14:31:07.832Z,27.70
2023-01-25T14:34:24.334Z,25.50
2023-01-25T14:38:15.266Z,28.90
2023-01-25T14:45:21.295Z,28.40
2023-01-25T14:49:21.850Z,29.30
2023-01-25T14:53:06.629Z,31.80
2023-01-25T14:56:49.981Z,27.70
2023-01-25T15:00:34.933Z,33.10
2023-01-25T15:04:20.024Z,34.10
2023-01-25T15:08:03.150Z,31.70
2023-01-25T15:12:06.154Z,26.20
2023-01-25T15:16:00.320Z,27.80
2023-01-25T15:19:44.522Z,27.70
2023-01-25T15:23:22.178Z,27.40
2023-01-25T15:27:07.513Z,35.00
2023-01-25T15:30:45.412Z,28.50
2023-01-25T15:34:30.389Z,29.20
2023-01-25T15:38:08.785Z,32.40
2023-01-25T15:41:46.421Z,27.70
2023-01-25T15:45:31.278Z,27.40
2023-01-25T15:49:16.252Z,26.20
2023-01-25T15:53:01.307Z,28.40
2023-01-25T15:56:31.630Z,30.10
2023-01-25T16:00:16.583Z,28.40
2023-01-25T16:04:01.529Z,30.50
2023-01-25T16:07:46.476Z,29.70
2023-01-25T16:11:25.062Z,32.70
2023-01-25T16:15:10.363Z,30.60
2023-01-25T16:18:46.857Z,30.80
2023-01-25T16:22:31.781Z,29.50
2023-01-25T16:26:16.731Z,28.00
2023-01-25T16:30:01.679Z,31.50
2023-01-25T16:33:39.181Z,32.90
2023-01-25T16:37:02.661Z,29.90
2023-01-25T16:40:33.994Z,32.50
2023-01-25T16:44:19.075Z,34.20
2023-01-25T16:48:04.206Z,32.40
2023-01-25T16:51:58.117Z,38.90
2023-01-25T16:55:43.343Z,35.30
2023-01-25T16:59:28.588Z,29.80
2023-01-25T17:03:13.683Z,44.60
2023-01-25T17:07:01.373Z,53.70
2023-01-25T17:10:46.196Z,35.00
2023-01-25T17:14:31.316Z,31.70
2023-01-25T17:18:17.028Z,29.90
2023-01-25T17:21:56.055Z,29.40
2023-01-25T17:25:41.546Z,31.00
2023-01-25T17:29:26.709Z,27.60
2023-01-25T17:33:11.358Z,30.90
2023-01-25T17:36:56.447Z,40.50
2023-01-25T17:40:29.917Z,32.60
2023-01-25T17:44:14.893Z,45.20
2023-01-25T17:47:59.800Z,43.30
2023-01-25T17:51:44.945Z,35.10
2023-01-25T17:55:30.052Z,69.30
2023-01-25T17:59:08.793Z,34.40
2023-01-25T18:02:54.060Z,51.80
2023-01-25T18:06:39.437Z,30.10
2023-01-25T18:10:24.829Z,46.20
2023-01-25T18:14:02.630Z,30.30
2023-01-25T18:17:48.044Z,28.30
2023-01-25T18:21:25.822Z,29.20
2023-01-25T18:25:11.822Z,27.60
2023-01-25T18:28:40.767Z,27.70
2023-01-25T18:32:26.984Z,30.00
2023-01-25T18:36:13.084Z,30.60
2023-01-25T18:39:58.495Z,29.70
2023-01-25T18:43:43.975Z,30.60
2023-01-25T18:47:29.390Z,31.00
2023-01-25T18:51:14.153Z,32.20
2023-01-25T18:54:52.490Z,31.50
2023-01-25T18:58:37.609Z,34.60
2023-01-25T19:02:24.185Z,31.60
2023-01-25T19:06:09.377Z,31.30
2023-01-25T19:09:54.438Z,33.20
2023-01-25T19:13:32.878Z,32.70
2023-01-25T19:17:19.795Z,30.80
2023-01-25T19:21:05.411Z,28.90
2023-01-25T19:24:31.295Z,30.70
2023-01-25T19:28:16.830Z,32.10
2023-01-25T19:32:07.490Z,30.40
2023-01-25T19:35:52.600Z,32.30
2023-01-25T19:39:40.377Z,31.60
2023-01-25T19:43:24.123Z,32.00
2023-01-25T19:47:18.044Z,32.70
2023-01-25T19:51:03.458Z,33.30
2023-01-25T19:54:48.720Z,32.10
2023-01-25T19:58:33.688Z,30.30
2023-01-25T20:02:20.959Z,34.20
2023-01-25T20:06:06.415Z,32.70
2023-01-25T20:09:55.797Z,31.70
2023-01-25T20:13:41.347Z,32.40
2023-01-25T20:17:26.605Z,32.10
2023-01-25T20:21:10.579Z,33.50
2023-01-25T20:24:54.161Z,33.00
2023-01-25T20:28:38.049Z,34.10
2023-01-25T20:32:32.370Z,32.80
2023-01-25T20:36:16.804Z,34.60
2023-01-25T20:39:55.783Z,33.30
2023-01-25T20:43:20.878Z,33.80
2023-01-25T20:47:06.103Z,33.20
2023-01-25T20:50:51.744Z,35.40
2023-01-25T20:54:37.237Z,32.40
2023-01-25T20:58:22.400Z,31.80
2023-01-25T21:02:16.941Z,32.90
2023-01-25T21:05:54.856Z,33.70
2023-01-25T21:09:29.727Z,34.70
2023-01-25T21:12:57.856Z,37.30
2023-01-25T21:16:43.812Z,34.70
2023-01-25T21:20:28.975Z,32.50
2023-01-25T21:24:14.062Z,31.20
2023-01-25T21:27:58.760Z,31.00
2023-01-25T21:31:32.607Z,30.40
2023-01-25T21:35:17.579Z,31.80
2023-01-25T21:39:02.434Z,31.70
2023-01-25T21:42:47.183Z,30.50
2023-01-25T21:46:34.916Z,32.30
2023-01-25T21:53:36.011Z,34.30
2023-01-25T21:57:20.839Z,34.60
2023-01-25T22:01:05.784Z,36.30
2023-01-25T22:04:40.084Z,34.40
2023-01-25T22:08:25.003Z,33.80
2023-01-25T22:12:08.960Z,33.20
2023-01-25T22:15:54.002Z,34.30
2023-01-25T22:19:34.104Z,34.10
2023-01-25T22:23:07.611Z,31.70
2023-01-25T22:26:52.368Z,33.10
2023-01-25T22:30:26.298Z,32.70
2023-01-25T22:34:02.645Z,32.80
2023-01-25T22:37:49.013Z,34.20
2023-01-25T22:41:34.304Z,34.10
2023-01-25T22:45:19.180Z,34.10
2023-01-25T22:48:54.074Z,33.60
2023-01-25T22:52:39.170Z,33.20
2023-01-25T22:56:14.506Z,33.70
2023-01-25T22:59:59.688Z,36.00
2023-01-25T23:03:44.636Z,34.50
2023-01-25T23:07:35.431Z,35.00
2023-01-25T23:11:01.734Z,37.80
2023-01-25T23:14:45.187Z,35.20
2023-01-25T23:18:28.733Z,36.70
2023-01-25T23:22:07.882Z,36.40
2023-01-25T23:25:51.796Z,36.50
2023-01-25T23:29:26.074Z,35.80
2023-01-25T23:33:11.111Z,37.30
2023-01-25T23:36:54.748Z,36.50
2023-01-25T23:40:39.774Z,35.00
2023-01-25T23:44:13.484Z,34.70
2023-01-25T23:47:58.337Z,37.20
2023-01-25T23:51:43.678Z,37.80
2023-01-25T23:55:21.525Z,37.60
2023-01-25T23:58:55.726Z,38.40
